Time;durP1;ratioP1;P1;durP2;ratioP2;P2;SDS_P1;SDS_P2;PMS_P1;PMS_P2;Temp;Humidity;BMP_temperature;BMP_pressure;BME280_temperature;BME280_humidity;BME280_pressure;Samples;Min_cycle;Max_cycle;Signal;HPM_P1;HPM_P2
2023/08/24 00:02:33;;;;;;;5.20;4.70;;;;;;;;;;10373827;28;20080;-62
2023/08/24 00:07:34;;;;;;;6.80;5.30;;;;;;;;;;10373058;28;20506;-62
2023/08/24 00:12:35;;;;;;;7.73;4.87;;;;;;;;;;10372778;28;20037;-62
2023/08/24 00:17:37;;;;;;;6.32;5.20;;;;;;;;;;10372928;28;20030;-62
2023/08/24 00:22:39;;;;;;;5.50;5.00;;;;;;;;;;10372880;28;20109;-62
2023/08/24 00:27:40;;;;;;;5.32;4.82;;;;;;;;;;10372663;28;20108;-62
2023/08/24 00:32:40;;;;;;;5.55;5.00;;;;;;;;;;10372319;28;20362;-62
2023/08/24 00:37:41;;;;;;;6.85;4.82;;;;;;;;;;10372087;28;20122;-62
2023/08/24 00:42:43;;;;;;;5.30;4.75;;;;;;;;;;10371894;28;20066;-61
2023/08/24 00:47:46;;;;;;;5.10;4.60;;;;;;;;;;10372108;28;20524;-62
2023/08/24 00:52:47;;;;;;;5.50;4.93;;;;;;;;;;10370465;28;20112;-62
2023/08/24 00:57:47;;;;;;;5.75;5.18;;;;;;;;;;10371762;28;20072;-60
2023/08/24 01:02:48;;;;;;;4.97;4.50;;;;;;;;;;10370329;28;20026;-60
2023/08/24 01:07:48;;;;;;;5.17;4.60;;;;;;;;;;10371376;28;20482;-60
2023/08/24 01:12:59;;;;;;;5.03;4.63;;;;;;;;;;10371027;28;20061;-60
2023/08/24 01:18:04;;;;;;;5.75;4.53;;;;;;;;;;10369685;28;20028;-60
2023/08/24 01:23:10;;;;;;;4.95;4.45;;;;;;;;;;10368723;28;20555;-60
2023/08/24 01:28:12;;;;;;;5.15;4.65;;;;;;;;;;10370515;28;20017;-62
2023/08/24 01:33:14;;;;;;;5.15;4.43;;;;;;;;;;10369076;28;20053;-61
2023/08/24 01:38:15;;;;;;;4.85;4.43;;;;;;;;;;10369944;28;20057;-61
2023/08/24 01:43:15;;;;;;;5.38;4.70;;;;;;;;;;10370017;28;20129;-61
2023/08/24 01:48:16;;;;;;;4.65;4.25;;;;;;;;;;10368646;28;20080;-61
2023/08/24 01:53:16;;;;;;;5.33;4.13;;;;;;;;;;10369564;28;20029;-60
2023/08/24 01:58:16;;;;;;;5.00;4.60;;;;;;;;;;10368224;28;20546;-60
2023/08/24 02:03:17;;;;;;;6.50;5.07;;;;;;;;;;10369969;28;20862;-60
2023/08/24 02:08:17;;;;;;;5.40;4.90;;;;;;;;;;10368148;28;20034;-61
2023/08/24 02:13:17;;;;;;;5.33;4.30;;;;;;;;;;10368884;28;20045;-61
2023/08/24 02:18:18;;;;;;;4.67;4.27;;;;;;;;;;10368743;28;20037;-61
2023/08/24 02:23:18;;;;;;;4.97;4.50;;;;;;;;;;10369174;28;20108;-62
2023/08/24 02:28:19;;;;;;;4.90;4.27;;;;;;;;;;10368490;28;20508;-61
2023/08/24 02:33:19;;;;;;;5.13;4.73;;;;;;;;;;10368695;28;20095;-61
2023/08/24 02:38:19;;;;;;;4.30;3.90;;;;;;;;;;10368011;28;20034;-63
2023/08/24 02:43:20;;;;;;;4.50;4.10;;;;;;;;;;10368168;28;20057;-61
2023/08/24 02:48:20;;;;;;;5.73;4.47;;;;;;;;;;10368086;28;20038;-62
2023/08/24 02:53:20;;;;;;;5.43;4.53;;;;;;;;;;10367887;28;20053;-64
2023/08/24 02:58:21;;;;;;;4.60;4.10;;;;;;;;;;10367866;28;20018;-62
2023/08/24 03:03:21;;;;;;;4.40;4.00;;;;;;;;;;10367826;28;20453;-61
2023/08/24 03:08:22;;;;;;;4.38;3.97;;;;;;;;;;10367688;28;20028;-60
2023/08/24 03:13:22;;;;;;;4.43;3.90;;;;;;;;;;10367992;28;20037;-60
2023/08/24 03:18:23;;;;;;;5.07;4.57;;;;;;;;;;10367455;28;20048;-61
2023/08/24 03:23:23;;;;;;;5.60;4.80;;;;;;;;;;10367343;28;20574;-62
2023/08/24 03:28:23;;;;;;;5.03;3.80;;;;;;;;;;10367364;28;20045;-61
2023/08/24 03:33:24;;;;;;;5.17;3.90;;;;;;;;;;10367187;28;20117;-62
2023/08/24 03:38:24;;;;;;;4.97;4.00;;;;;;;;;;10366753;28;20046;-61
2023/08/24 03:43:24;;;;;;;4.13;3.73;;;;;;;;;;10366803;28;20427;-62
2023/08/24 03:48:25;;;;;;;4.53;4.13;;;;;;;;;;10373202;28;20037;-61
2023/08/24 03:53:25;;;;;;;5.00;4.10;;;;;;;;;;10374019;28;20088;-62
2023/08/24 03:58:26;;;;;;;4.77;4.03;;;;;;;;;;10374501;28;20026;-61
2023/08/24 04:03:26;;;;;;;3.97;3.63;;;;;;;;;;10374350;28;20030;-61
2023/08/24 04:08:27;;;;;;;4.80;4.35;;;;;;;;;;10373975;28;20033;-61
2023/08/24 04:13:27;;;;;;;5.23;4.30;;;;;;;;;;10373101;28;20057;-62
2023/08/24 04:18:27;;;;;;;6.37;4.27;;;;;;;;;;10373105;28;20025;-62
2023/08/24 04:23:28;;;;;;;7.03;4.33;;;;;;;;;;10373461;28;20037;-63
2023/08/24 04:28:28;;;;;;;4.67;4.07;;;;;;;;;;10372689;28;20439;-61
2023/08/24 04:33:29;;;;;;;4.25;3.90;;;;;;;;;;10372712;28;20471;-61
2023/08/24 04:38:29;;;;;;;4.63;4.07;;;;;;;;;;10372160;28;20343;-60
2023/08/24 04:43:30;;;;;;;3.90;3.60;;;;;;;;;;10372249;28;20053;-61
2023/08/24 04:48:32;;;;;;;5.37;4.60;;;;;;;;;;10371938;28;20022;-62
2023/08/24 04:53:33;;;;;;;4.85;3.92;;;;;;;;;;10371737;28;20030;-62
2023/08/24 04:58:34;;;;;;;5.07;4.13;;;;;;;;;;10371920;28;20484;-62
2023/08/24 05:03:34;;;;;;;4.60;4.10;;;;;;;;;;10372433;28;20030;-61
2023/08/24 05:08:34;;;;;;;4.40;4.00;;;;;;;;;;10371133;28;20034;-62
2023/08/24 05:13:35;;;;;;;4.63;4.22;;;;;;;;;;10370877;28;20033;-61
2023/08/24 05:18:38;;;;;;;4.20;3.80;;;;;;;;;;10370647;28;20260;-61
2023/08/24 05:23:38;;;;;;;5.03;3.30;;;;;;;;;;10370587;28;20106;-62
2023/08/24 05:28:39;;;;;;;4.25;3.85;;;;;;;;;;10371168;28;20156;-61
2023/08/24 05:33:39;;;;;;;4.40;4.00;;;;;;;;;;10369199;28;20516;-62
2023/08/24 05:38:46;;;;;;;4.83;4.43;;;;;;;;;;10381840;23;20499;-71
2023/08/24 05:43:46;;;;;;;5.20;4.60;;;;;;;;;;10370446;28;20034;-67
2023/08/24 05:48:47;;;;;;;5.07;4.57;;;;;;;;;;10368595;28;20026;-70
2023/08/24 05:53:48;;;;;;;8.60;5.65;;;;;;;;;;10369606;28;20049;-70
2023/08/24 05:58:49;;;;;;;9.33;5.80;;;;;;;;;;10368224;28;20554;-70
2023/08/24 06:03:50;;;;;;;7.15;6.35;;;;;;;;;;10369275;28;20381;-70
2023/08/24 06:08:50;;;;;;;11.02;7.15;;;;;;;;;;10368482;28;20145;-70
2023/08/24 06:13:53;;;;;;;15.37;7.63;;;;;;;;;;10369056;28;20045;-65
2023/08/24 06:18:53;;;;;;;14.60;7.32;;;;;;;;;;10366774;28;20018;-64
2023/08/24 06:23:54;;;;;;;12.43;7.80;;;;;;;;;;10367993;28;20026;-62
2023/08/24 06:28:55;;;;;;;16.50;6.80;;;;;;;;;;10367969;28;20969;-64
2023/08/24 06:33:56;;;;;;;10.75;6.90;;;;;;;;;;10368183;28;20038;-62
2023/08/24 06:38:56;;;;;;;10.40;6.90;;;;;;;;;;10367560;28;20038;-63
2023/08/24 06:43:56;;;;;;;9.83;6.50;;;;;;;;;;10367807;28;20030;-62
2023/08/24 06:48:57;;;;;;;8.27;6.70;;;;;;;;;;10367860;28;20026;-62
2023/08/24 06:53:57;;;;;;;9.93;7.00;;;;;;;;;;10367996;28;20054;-63
2023/08/24 06:58:57;;;;;;;10.67;7.20;;;;;;;;;;10368088;28;20381;-63
2023/08/24 07:03:58;;;;;;;8.37;6.37;;;;;;;;;;10367340;28;20566;-62
2023/08/24 07:08:58;;;;;;;7.60;6.43;;;;;;;;;;10367977;28;20462;-63
2023/08/24 07:13:58;;;;;;;8.77;6.90;;;;;;;;;;10367569;28;20462;-63
2023/08/24 07:18:59;;;;;;;7.83;6.67;;;;;;;;;;10367293;28;20470;-63
2023/08/24 07:23:59;;;;;;;18.50;7.00;;;;;;;;;;10374846;28;20033;-63
2023/08/24 07:29:00;;;;;;;8.83;6.17;;;;;;;;;;10374854;28;20034;-63
2023/08/24 07:34:00;;;;;;;8.02;6.28;;;;;;;;;;10375055;28;20033;-63
2023/08/24 07:39:00;;;;;;;7.93;5.73;;;;;;;;;;10374617;28;20073;-63
2023/08/24 07:44:01;;;;;;;11.30;5.90;;;;;;;;;;10374384;28;20463;-63
2023/08/24 07:49:01;;;;;;;8.40;6.13;;;;;;;;;;10374103;28;20072;-62
2023/08/24 07:54:04;;;;;;;7.20;6.47;;;;;;;;;;10374241;28;20038;-63
2023/08/24 07:59:04;;;;;;;7.93;5.80;;;;;;;;;;10374226;28;20076;-63
2023/08/24 08:04:05;;;;;;;7.05;5.45;;;;;;;;;;10374020;28;20030;-63
2023/08/24 08:09:06;;;;;;;7.95;5.45;;;;;;;;;;10373188;28;20435;-63
2023/08/24 08:14:06;;;;;;;11.80;5.60;;;;;;;;;;10372909;28;20084;-63
2023/08/24 08:19:07;;;;;;;6.07;5.40;;;;;;;;;;10372907;28;20424;-63
2023/08/24 08:24:07;;;;;;;6.70;5.78;;;;;;;;;;10372543;28;20025;-63
2023/08/24 08:29:07;;;;;;;7.83;5.10;;;;;;;;;;10372508;28;20153;-63
2023/08/24 08:34:08;;;;;;;8.17;5.57;;;;;;;;;;10372278;28;20029;-63
2023/08/24 08:39:08;;;;;;;6.07;5.47;;;;;;;;;;10372195;28;20053;-63
2023/08/24 08:44:10;;;;;;;6.40;5.55;;;;;;;;;;10372409;28;20034;-63
2023/08/24 08:49:12;;;;;;;7.68;5.38;;;;;;;;;;10370727;28;20026;-63
2023/08/24 08:54:12;;;;;;;5.78;5.20;;;;;;;;;;10370782;28;20033;-63
2023/08/24 08:59:14;;;;;;;5.65;5.10;;;;;;;;;;10370779;28;20030;-63
2023/08/24 09:04:15;;;;;;;8.10;5.07;;;;;;;;;;10370947;28;20462;-63
2023/08/24 09:09:15;;;;;;;6.00;5.40;;;;;;;;;;10370995;28;20034;-63
2023/08/24 09:14:16;;;;;;;8.30;5.53;;;;;;;;;;10369423;28;20112;-63
2023/08/24 09:19:16;;;;;;;6.70;5.20;;;;;;;;;;10370716;28;20026;-63
2023/08/24 09:24:16;;;;;;;6.07;5.27;;;;;;;;;;10370343;28;20524;-63
2023/08/24 09:29:17;;;;;;;5.47;4.90;;;;;;;;;;10370304;28;20105;-63
2023/08/24 09:34:21;;;;;;;5.83;5.10;;;;;;;;;;10370031;28;20036;-63
2023/08/24 09:39:21;;;;;;;6.63;5.15;;;;;;;;;;10369643;28;20489;-64
2023/08/24 09:44:21;;;;;;;6.20;5.40;;;;;;;;;;10369472;28;20125;-64
2023/08/24 09:49:22;;;;;;;5.37;4.87;;;;;;;;;;10369625;28;20840;-63
2023/08/24 09:54:27;;;;;;;5.77;5.17;;;;;;;;;;10369237;28;20535;-63
2023/08/24 09:59:28;;;;;;;7.70;5.32;;;;;;;;;;10369826;28;20489;-63
2023/08/24 10:04:35;;;;;;;5.88;4.75;;;;;;;;;;10369603;28;20026;-63
2023/08/24 10:09:39;;;;;;;6.37;5.13;;;;;;;;;;10368368;28;20033;-63
2023/08/24 10:14:45;;;;;;;5.47;4.90;;;;;;;;;;10367995;28;20030;-63
2023/08/24 10:19:46;;;;;;;5.07;4.22;;;;;;;;;;10367497;28;20026;-63
2023/08/24 10:24:51;;;;;;;5.95;4.70;;;;;;;;;;10367613;28;20061;-63
2023/08/24 10:29:51;;;;;;;5.30;4.80;;;;;;;;;;10368841;28;20523;-63
2023/08/24 10:34:52;;;;;;;6.90;4.90;;;;;;;;;;10368080;28;20107;-63
2023/08/24 10:39:52;;;;;;;8.35;4.85;;;;;;;;;;10366565;28;20049;-63
2023/08/24 10:44:53;;;;;;;6.27;4.83;;;;;;;;;;10368521;28;20032;-63
2023/08/24 10:49:56;;;;;;;6.93;4.95;;;;;;;;;;10368763;28;20018;-63
2023/08/24 10:54:56;;;;;;;5.10;4.60;;;;;;;;;;10373341;28;20405;-63
2023/08/24 10:59:59;;;;;;;7.47;5.10;;;;;;;;;;10381156;28;20037;-62
2023/08/24 11:05:07;;;;;;;5.25;4.75;;;;;;;;;;10381423;28;20030;-63
2023/08/24 11:10:13;;;;;;;7.75;5.30;;;;;;;;;;10381406;28;20109;-64
2023/08/24 11:15:29;;;;;;;5.95;5.32;;;;;;;;;;10379860;28;20052;-64
2023/08/24 11:20:30;;;;;;;6.35;4.88;;;;;;;;;;10381246;28;20029;-63
2023/08/24 11:25:35;;;;;;;5.13;4.63;;;;;;;;;;10380566;28;20057;-63
2023/08/24 11:30:36;;;;;;;7.43;5.30;;;;;;;;;;10380695;28;20022;-63
2023/08/24 11:35:37;;;;;;;7.22;5.30;;;;;;;;;;10379151;28;20451;-63
2023/08/24 11:40:38;;;;;;;7.47;4.63;;;;;;;;;;10380276;28;20162;-63
2023/08/24 11:45:40;;;;;;;5.47;4.63;;;;;;;;;;10380395;28;20050;-63
2023/08/24 11:50:42;;;;;;;6.05;4.80;;;;;;;;;;10380465;28;20076;-63
2023/08/24 11:55:42;;;;;;;5.80;5.20;;;;;;;;;;10379983;28;20037;-63
2023/08/24 12:00:43;;;;;;;5.43;4.93;;;;;;;;;;10380625;28;20405;-63
2023/08/24 12:05:43;;;;;;;5.40;4.90;;;;;;;;;;10376796;28;20253;-63
2023/08/24 12:10:44;;;;;;;6.17;5.50;;;;;;;;;;10373877;28;20152;-63
2023/08/24 12:15:47;;;;;;;10.93;4.43;;;;;;;;;;10373460;28;20040;-63
2023/08/24 12:20:47;;;;;;;5.95;5.28;;;;;;;;;;10373050;28;20058;-63
2023/08/24 12:25:54;;;;;;;5.70;4.70;;;;;;;;;;10373254;28;20113;-63
2023/08/24 12:30:54;;;;;;;5.68;5.10;;;;;;;;;;10372652;28;20438;-63
2023/08/24 12:35:55;;;;;;;5.07;4.57;;;;;;;;;;10372781;28;20030;-63
2023/08/24 12:40:56;;;;;;;5.13;4.40;;;;;;;;;;10372136;28;20482;-63
2023/08/24 12:45:56;;;;;;;5.77;4.70;;;;;;;;;;10372536;28;20393;-63
2023/08/24 12:50:56;;;;;;;5.40;4.50;;;;;;;;;;10371851;28;20036;-63
2023/08/24 12:55:57;;;;;;;5.20;4.70;;;;;;;;;;10371584;28;20029;-63
2023/08/24 13:00:57;;;;;;;5.23;4.73;;;;;;;;;;10371493;28;20022;-63
2023/08/24 13:05:58;;;;;;;4.97;4.30;;;;;;;;;;10371205;28;20112;-63
2023/08/24 13:10:58;;;;;;;5.30;4.57;;;;;;;;;;10371023;28;20022;-63
2023/08/24 13:15:59;;;;;;;4.25;3.83;;;;;;;;;;10371239;28;20045;-62
2023/08/24 13:20:59;;;;;;;5.27;4.77;;;;;;;;;;10369704;28;20026;-63
2023/08/24 13:26:00;;;;;;;5.05;4.47;;;;;;;;;;10369939;28;20058;-63
2023/08/24 13:31:00;;;;;;;5.25;4.32;;;;;;;;;;10369999;28;20025;-63
2023/08/24 13:36:01;;;;;;;4.90;4.40;;;;;;;;;;10369919;28;20482;-63
2023/08/24 13:41:03;;;;;;;6.88;4.63;;;;;;;;;;10370708;28;20117;-63
2023/08/24 13:46:03;;;;;;;4.95;4.28;;;;;;;;;;10370268;28;20065;-63
2023/08/24 13:51:04;;;;;;;4.73;4.23;;;;;;;;;;10370229;28;20501;-63
2023/08/24 13:56:05;;;;;;;6.15;4.78;;;;;;;;;;10369070;28;20060;-63
2023/08/24 14:01:05;;;;;;;4.90;4.40;;;;;;;;;;10368238;28;20034;-63
2023/08/24 14:06:06;;;;;;;5.37;4.27;;;;;;;;;;10368990;28;20049;-63
2023/08/24 14:11:06;;;;;;;4.55;4.15;;;;;;;;;;10368828;28;20444;-63
2023/08/24 14:16:07;;;;;;;5.17;4.67;;;;;;;;;;10368559;28;20232;-63
2023/08/24 14:21:07;;;;;;;4.93;4.53;;;;;;;;;;10368505;28;20036;-63
2023/08/24 14:26:09;;;;;;;4.47;4.07;;;;;;;;;;10368712;28;20029;-64
2023/08/24 14:31:09;;;;;;;5.43;4.68;;;;;;;;;;10368262;28;20029;-63
2023/08/24 14:36:11;;;;;;;5.00;4.03;;;;;;;;;;10367896;28;20481;-63
2023/08/24 14:41:12;;;;;;;5.18;4.57;;;;;;;;;;10367738;28;20486;-64
2023/08/24 14:46:13;;;;;;;4.93;4.40;;;;;;;;;;10367799;28;20062;-63
2023/08/24 14:51:13;;;;;;;4.70;4.30;;;;;;;;;;10368340;28;20026;-63
2023/08/24 14:56:13;;;;;;;5.10;4.60;;;;;;;;;;10367501;28;20041;-63
2023/08/24 15:01:14;;;;;;;4.83;4.40;;;;;;;;;;10367669;28;20022;-63
2023/08/24 15:06:15;;;;;;;4.10;3.72;;;;;;;;;;10367614;28;20025;-63
2023/08/24 15:11:18;;;;;;;6.77;4.70;;;;;;;;;;10367447;28;20080;-63
2023/08/24 15:16:18;;;;;;;5.60;4.55;;;;;;;;;;10367757;28;20034;-63
2023/08/24 15:21:19;;;;;;;5.10;4.32;;;;;;;;;;10367197;28;20485;-63
2023/08/24 15:26:19;;;;;;;4.80;4.37;;;;;;;;;;10367620;28;20037;-63
2023/08/24 15:31:20;;;;;;;5.30;4.78;;;;;;;;;;10367161;28;20064;-63
2023/08/24 15:36:20;;;;;;;4.87;4.47;;;;;;;;;;10367157;28;20041;-63
2023/08/24 15:41:20;;;;;;;4.50;4.10;;;;;;;;;;10368756;28;20428;-63
2023/08/24 15:46:21;;;;;;;5.37;4.30;;;;;;;;;;10374393;28;20076;-63
2023/08/24 15:51:23;;;;;;;5.93;4.80;;;;;;;;;;10374800;28;20583;-63
2023/08/24 15:56:23;;;;;;;4.90;4.40;;;;;;;;;;10374552;28;20466;-64
2023/08/24 16:01:23;;;;;;;5.47;4.77;;;;;;;;;;10374042;28;20025;-63
2023/08/24 16:06:24;;;;;;;5.77;4.50;;;;;;;;;;10373742;28;20471;-63
2023/08/24 16:11:24;;;;;;;5.60;4.93;;;;;;;;;;10374000;28;20437;-64
2023/08/24 16:16:27;;;;;;;5.20;4.70;;;;;;;;;;10373837;28;20484;-63
2023/08/24 16:21:30;;;;;;;5.20;4.63;;;;;;;;;;10372678;28;20030;-64
2023/08/24 16:26:31;;;;;;;6.55;4.60;;;;;;;;;;10372961;28;20053;-67
2023/08/24 16:31:31;;;;;;;5.47;4.77;;;;;;;;;;10372881;28;20058;-67
2023/08/24 16:36:32;;;;;;;5.97;4.40;;;;;;;;;;10372863;28;20515;-68
2023/08/24 16:41:33;;;;;;;5.73;5.13;;;;;;;;;;10372928;28;20494;-63
2023/08/24 16:46:33;;;;;;;8.68;4.75;;;;;;;;;;10371757;28;20475;-65
2023/08/24 16:51:33;;;;;;;7.67;5.03;;;;;;;;;;10371617;28;20426;-65
2023/08/24 16:56:34;;;;;;;6.57;4.70;;;;;;;;;;10372050;28;20087;-64
2023/08/24 17:01:34;;;;;;;6.22;5.28;;;;;;;;;;10371547;28;20048;-59
2023/08/24 17:06:35;;;;;;;5.60;4.97;;;;;;;;;;10370257;28;20026;-65
2023/08/24 17:11:35;;;;;;;7.65;5.20;;;;;;;;;;10370490;28;20029;-65
2023/08/24 17:16:36;;;;;;;5.63;5.13;;;;;;;;;;10371084;28;20053;-64
2023/08/24 17:21:36;;;;;;;9.30;5.45;;;;;;;;;;10370413;28;20428;-64
2023/08/24 17:26:36;;;;;;;8.33;5.20;;;;;;;;;;10370694;28;20033;-65
2023/08/24 17:31:37;;;;;;;6.57;5.00;;;;;;;;;;10371048;28;20291;-64
2023/08/24 17:36:37;;;;;;;6.47;4.97;;;;;;;;;;10370338;28;20481;-64
2023/08/24 17:41:40;;;;;;;7.87;4.57;;;;;;;;;;10371001;28;20087;-64
2023/08/24 17:46:41;;;;;;;5.78;5.00;;;;;;;;;;10370530;28;20084;-64
2023/08/24 17:51:41;;;;;;;10.13;4.78;;;;;;;;;;10370380;28;20092;-64
2023/08/24 17:56:41;;;;;;;7.13;5.00;;;;;;;;;;10369534;28;20044;-64
2023/08/24 18:01:42;;;;;;;7.63;4.90;;;;;;;;;;10368488;28;20054;-64
2023/08/24 18:06:42;;;;;;;8.23;4.87;;;;;;;;;;10367677;28;20026;-63
2023/08/24 18:11:42;;;;;;;8.53;4.97;;;;;;;;;;10368420;28;20026;-64
2023/08/24 18:16:43;;;;;;;7.80;4.80;;;;;;;;;;10369002;28;20053;-63
2023/08/24 18:21:43;;;;;;;16.83;7.10;;;;;;;;;;10367232;28;20026;-64
2023/08/24 18:26:44;;;;;;;11.50;6.23;;;;;;;;;;10368126;28;20455;-60
2023/08/24 18:31:44;;;;;;;10.00;5.53;;;;;;;;;;10368638;28;20033;-67
2023/08/24 18:36:45;;;;;;;15.47;5.93;;;;;;;;;;10367013;28;20132;-64
2023/08/24 18:41:47;;;;;;;13.73;6.30;;;;;;;;;;10368446;28;20018;-67
2023/08/24 18:46:49;;;;;;;16.33;6.00;;;;;;;;;;10366549;28;20527;-69
2023/08/24 18:51:51;;;;;;;14.73;7.40;;;;;;;;;;10367263;28;20380;-71
2023/08/24 18:56:51;;;;;;;18.65;11.63;;;;;;;;;;10367488;28;20133;-71
2023/08/24 19:01:51;;;;;;;15.73;8.57;;;;;;;;;;10367602;28;20040;-71
2023/08/24 19:06:52;;;;;;;10.10;7.23;;;;;;;;;;10367631;28;20505;-66
2023/08/24 19:11:52;;;;;;;12.70;7.35;;;;;;;;;;10367715;28;20037;-65
2023/08/24 19:16:53;;;;;;;15.03;8.00;;;;;;;;;;10370410;28;20585;-67
2023/08/24 19:21:53;;;;;;;11.97;7.43;;;;;;;;;;10375454;28;20038;-66
2023/08/24 19:26:53;;;;;;;14.55;6.97;;;;;;;;;;10374947;28;20437;-70
2023/08/24 19:31:55;;;;;;;18.67;6.90;;;;;;;;;;10373769;28;20600;-63
2023/08/24 19:36:55;;;;;;;11.75;6.82;;;;;;;;;;10372716;28;20132;-66
2023/08/24 19:41:55;;;;;;;21.00;6.77;;;;;;;;;;10373158;28;20488;-64
2023/08/24 19:46:56;;;;;;;10.80;6.27;;;;;;;;;;10373733;28;20025;-65
2023/08/24 19:51:56;;;;;;;11.37;6.70;;;;;;;;;;10374318;28;20413;-64
2023/08/24 19:56:56;;;;;;;12.27;6.43;;;;;;;;;;10373468;28;20408;-64
2023/08/24 20:01:57;;;;;;;12.20;6.43;;;;;;;;;;10372888;28;20512;-63
2023/08/24 20:06:57;;;;;;;13.53;6.33;;;;;;;;;;10372623;28;20466;-65
2023/08/24 20:11:58;;;;;;;19.80;6.40;;;;;;;;;;10372620;28;20034;-66
2023/08/24 20:16:58;;;;;;;10.20;6.43;;;;;;;;;;10370876;28;20157;-66
2023/08/24 20:21:58;;;;;;;9.93;6.50;;;;;;;;;;10369987;28;20378;-64
2023/08/24 20:26:59;;;;;;;22.80;5.97;;;;;;;;;;10370016;28;20030;-65
2023/08/24 20:31:59;;;;;;;10.35;5.85;;;;;;;;;;10370098;28;20041;-65
2023/08/24 20:36:59;;;;;;;14.67;6.40;;;;;;;;;;10371574;28;20308;-66
2023/08/24 20:42:13;;;;;;;14.00;6.17;;;;;;;;;;10371661;28;20098;-66
2023/08/24 20:47:14;;;;;;;17.90;5.55;;;;;;;;;;10372645;28;20026;-67
2023/08/24 20:52:14;;;;;;;20.02;5.70;;;;;;;;;;10372232;28;20457;-65
2023/08/24 20:57:15;;;;;;;8.57;5.10;;;;;;;;;;10371006;28;20060;-68
2023/08/24 21:02:15;;;;;;;9.57;5.30;;;;;;;;;;10371492;28;20443;-65
2023/08/24 21:07:16;;;;;;;7.80;5.57;;;;;;;;;;10371161;28;20520;-64
2023/08/24 21:12:16;;;;;;;9.05;5.25;;;;;;;;;;10370943;28;20060;-65
2023/08/24 21:17:17;;;;;;;10.67;5.17;;;;;;;;;;10371962;28;20033;-64
2023/08/24 21:22:17;;;;;;;10.67;5.73;;;;;;;;;;10371047;28;20458;-67
2023/08/24 21:27:18;;;;;;;8.68;4.97;;;;;;;;;;10370281;28;20394;-66
2023/08/24 21:32:18;;;;;;;7.77;4.80;;;;;;;;;;10370034;28;20022;-66
2023/08/24 21:37:18;;;;;;;10.93;5.10;;;;;;;;;;10368822;28;20473;-66
2023/08/24 21:42:19;;;;;;;12.23;5.80;;;;;;;;;;10369217;28;20030;-69
2023/08/24 21:47:19;;;;;;;7.77;5.00;;;;;;;;;;10369205;28;20025;-69
2023/08/24 21:52:19;;;;;;;6.73;4.73;;;;;;;;;;10369929;28;20022;-70
2023/08/24 21:57:22;;;;;;;6.33;4.50;;;;;;;;;;10369022;28;20582;-64
2023/08/24 22:02:22;;;;;;;10.35;4.63;;;;;;;;;;10368962;28;20087;-71
2023/08/24 22:07:23;;;;;;;8.33;4.80;;;;;;;;;;10369188;28;20363;-67
2023/08/24 22:12:23;;;;;;;11.90;4.47;;;;;;;;;;10368738;28;20455;-68
2023/08/24 22:17:23;;;;;;;9.00;4.50;;;;;;;;;;10368951;28;20453;-68
2023/08/24 22:22:24;;;;;;;8.27;5.00;;;;;;;;;;10369429;28;20420;-69
2023/08/24 22:27:24;;;;;;;9.47;4.10;;;;;;;;;;10368515;28;20478;-70
2023/08/24 22:32:24;;;;;;;5.73;4.50;;;;;;;;;;10368959;28;20034;-70
2023/08/24 22:37:25;;;;;;;8.77;3.87;;;;;;;;;;10368177;28;20053;-69
2023/08/24 22:42:25;;;;;;;7.43;4.00;;;;;;;;;;10368447;28;20065;-65
2023/08/24 22:47:25;;;;;;;4.87;4.00;;;;;;;;;;10368449;28;20099;-66
2023/08/24 22:52:26;;;;;;;5.03;4.30;;;;;;;;;;10368601;28;20370;-66
2023/08/24 22:57:27;;;;;;;5.20;4.45;;;;;;;;;;10368310;28;20026;-65
2023/08/24 23:02:27;;;;;;;5.90;4.03;;;;;;;;;;10368209;28;20030;-65
2023/08/24 23:07:27;;;;;;;12.27;4.10;;;;;;;;;;10368103;28;20803;-65
2023/08/24 23:12:28;;;;;;;8.47;4.53;;;;;;;;;;10367328;28;20527;-65
2023/08/24 23:17:28;;;;;;;6.20;4.37;;;;;;;;;;10367446;28;20443;-65
2023/08/24 23:22:29;;;;;;;4.30;3.90;;;;;;;;;;10367235;28;20286;-65
2023/08/24 23:27:29;;;;;;;4.37;3.90;;;;;;;;;;10367314;28;20277;-67
2023/08/24 23:32:29;;;;;;;6.33;4.07;;;;;;;;;;10367314;28;20393;-67
2023/08/24 23:37:30;;;;;;;4.17;3.57;;;;;;;;;;10367099;28;20500;-64
2023/08/24 23:42:30;;;;;;;5.43;4.00;;;;;;;;;;10367030;28;20440;-66
2023/08/24 23:47:31;;;;;;;5.72;3.70;;;;;;;;;;10366905;28;20532;-67
2023/08/24 23:52:32;;;;;;;4.75;3.83;;;;;;;;;;10366965;28;20487;-67
2023/08/24 23:57:32;;;;;;;9.60;4.30;;;;;;;;;;10367225;28;20026;-67
